createdAt,value
2018-12-08T00:04:28.916Z,7.20
2018-12-08T00:07:16.548Z,7.30
2018-12-08T00:10:13.607Z,7.20
2018-12-08T00:13:11.532Z,7.20
2018-12-08T00:15:58.267Z,7.20
2018-12-08T00:18:49.785Z,7.30
2018-12-08T00:24:29.056Z,7.30
2018-12-08T00:27:14.087Z,7.30
2018-12-08T00:29:55.455Z,7.20
2018-12-08T00:33:08.046Z,7.20
2018-12-08T00:35:57.146Z,7.30
2018-12-08T00:38:33.852Z,7.20
2018-12-08T00:43:57.830Z,7.20
2018-12-08T00:49:45.826Z,7.30
2018-12-08T00:52:22.776Z,7.30
2018-12-08T00:54:58.701Z,7.30
2018-12-08T00:57:46.209Z,7.30
2018-12-08T01:00:27.755Z,7.30
2018-12-08T01:03:08.488Z,7.20
2018-12-08T01:05:56.419Z,7.20
2018-12-08T01:11:32.634Z,7.20
2018-12-08T01:14:20.279Z,7.20
2018-12-08T01:16:56.064Z,7.20
2018-12-08T01:19:40.164Z,7.30
2018-12-08T01:22:26.016Z,7.30
2018-12-08T01:25:03.644Z,7.20
2018-12-08T01:27:38.458Z,7.30
2018-12-08T01:30:16.697Z,7.30
2018-12-08T01:32:52.276Z,7.20
2018-12-08T01:35:29.469Z,7.20
2018-12-08T01:38:03.431Z,7.20
2018-12-08T01:40:40.944Z,7.20
2018-12-08T01:43:15.455Z,7.20
2018-12-08T01:45:49.497Z,7.20
2018-12-08T01:48:27.539Z,7.10
2018-12-08T01:51:07.616Z,7.20
2018-12-08T01:53:52.181Z,7.20
2018-12-08T01:59:27.966Z,7.20
2018-12-08T02:02:06.940Z,7.20
2018-12-08T02:04:49.576Z,7.20
2018-12-08T02:07:28.475Z,7.30
2018-12-08T02:10:08.132Z,7.30
2018-12-08T02:12:52.479Z,7.30
2018-12-08T02:15:27.133Z,7.30
2018-12-08T02:18:10.036Z,7.20
2018-12-08T02:20:51.295Z,7.20
2018-12-08T02:23:30.444Z,7.10
2018-12-08T02:26:06.357Z,7.10
2018-12-08T02:28:41.369Z,7.10
2018-12-08T02:31:22.120Z,7.10
2018-12-08T02:34:05.626Z,7.10
2018-12-08T02:36:39.627Z,7.20
2018-12-08T02:39:14.551Z,7.20
2018-12-08T02:41:47.376Z,7.30
2018-12-08T02:44:20.943Z,7.30
2018-12-08T02:46:58.194Z,7.50
2018-12-08T02:49:31.467Z,7.50
2018-12-08T02:52:06.057Z,7.60
2018-12-08T02:54:38.567Z,7.60
2018-12-08T03:00:08.010Z,7.50
2018-12-08T03:02:43.933Z,7.50
2018-12-08T03:05:18.395Z,7.30
2018-12-08T03:07:51.506Z,7.20
2018-12-08T03:10:23.216Z,7.10
2018-12-08T03:13:17.560Z,7.10
2018-12-08T03:15:59.223Z,7.10
2018-12-08T03:18:31.833Z,7.10
2018-12-08T03:21:10.212Z,7.10
2018-12-08T03:23:58.754Z,7.10
2018-12-08T03:26:32.791Z,7.20
2018-12-08T03:29:05.263Z,7.20
2018-12-08T03:31:39.993Z,7.20
2018-12-08T03:34:13.214Z,7.30
2018-12-08T03:36:50.079Z,7.30
2018-12-08T03:39:31.812Z,7.30
2018-12-08T03:42:10.020Z,7.30
2018-12-08T03:44:43.418Z,7.30
2018-12-08T03:47:18.937Z,7.30
2018-12-08T03:49:55.678Z,7.30
2018-12-08T03:52:34.026Z,7.30
2018-12-08T03:55:06.732Z,7.30
2018-12-08T03:57:43.560Z,7.30
2018-12-08T04:00:19.337Z,7.30
2018-12-08T04:02:52.831Z,7.40
2018-12-08T04:05:42.397Z,7.40
2018-12-08T04:08:15.788Z,7.40
2018-12-08T04:10:49.057Z,7.40
2018-12-08T04:13:24.265Z,7.30
2018-12-08T04:16:00.291Z,7.40
2018-12-08T04:18:35.524Z,7.40
2018-12-08T04:21:10.351Z,7.40
2018-12-08T04:23:44.250Z,7.40
2018-12-08T04:26:19.611Z,7.40
2018-12-08T04:28:53.815Z,7.40
2018-12-08T04:31:38.415Z,7.50
2018-12-08T04:34:13.709Z,7.50
2018-12-08T04:36:46.395Z,7.60
2018-12-08T04:39:20.798Z,7.60
2018-12-08T04:41:53.934Z,7.60
2018-12-08T04:44:32.210Z,7.60
2018-12-08T04:47:07.888Z,7.60
2018-12-08T04:49:45.234Z,7.60
2018-12-08T04:53:36.837Z,7.70
2018-12-08T04:56:17.164Z,7.70
2018-12-08T04:58:52.467Z,7.70
2018-12-08T05:04:11.146Z,7.80
2018-12-08T05:06:47.487Z,7.80
2018-12-08T05:09:22.888Z,7.80
2018-12-08T05:12:08.809Z,7.90
2018-12-08T05:14:49.780Z,7.80
2018-12-08T05:17:28.473Z,7.90
2018-12-08T05:20:09.748Z,7.90
2018-12-08T05:22:44.714Z,8.00
2018-12-08T05:25:25.024Z,8.00
2018-12-08T05:28:00.193Z,8.00
2018-12-08T05:33:10.515Z,8.10
2018-12-08T05:35:53.256Z,8.00
2018-12-08T05:38:28.865Z,8.00
2018-12-08T05:43:48.694Z,8.00
2018-12-08T05:46:22.230Z,8.10
2018-12-08T05:49:06.708Z,8.00
2018-12-08T05:51:40.850Z,8.10
2018-12-08T05:54:13.025Z,8.10
2018-12-08T05:56:50.049Z,8.10
2018-12-08T05:59:24.393Z,8.10
2018-12-08T06:02:01.869Z,8.10
2018-12-08T06:04:37.520Z,8.10
2018-12-08T06:07:15.346Z,8.10
2018-12-08T06:09:56.052Z,8.10
2018-12-08T06:12:42.592Z,8.20
2018-12-08T06:15:23.338Z,8.10
2018-12-08T06:18:06.263Z,8.20
2018-12-08T06:20:41.581Z,8.10
2018-12-08T06:23:16.420Z,8.20
2018-12-08T06:25:50.680Z,8.20
2018-12-08T06:28:58.944Z,8.10
2018-12-08T06:31:37.048Z,8.10
2018-12-08T06:34:09.799Z,8.20
2018-12-08T06:39:32.552Z,8.20
2018-12-08T06:42:09.346Z,8.20
2018-12-08T06:44:46.462Z,8.20
2018-12-08T06:47:25.798Z,8.20
2018-12-08T06:50:00.363Z,8.10
2018-12-08T06:52:35.583Z,8.10
2018-12-08T06:55:15.504Z,8.30
2018-12-08T06:57:54.736Z,8.00
2018-12-08T07:00:27.166Z,8.10
2018-12-08T07:03:08.409Z,8.10
2018-12-08T07:05:41.791Z,8.10
2018-12-08T07:08:21.191Z,8.10
2018-12-08T07:10:56.753Z,8.10
2018-12-08T07:13:32.091Z,7.70
2018-12-08T07:16:05.402Z,8.00
2018-12-08T07:18:38.155Z,7.90
2018-12-08T07:21:19.914Z,7.90
2018-12-08T07:23:55.357Z,7.80
2018-12-08T07:26:38.022Z,7.80
2018-12-08T07:29:08.648Z,7.80
2018-12-08T07:31:54.589Z,7.80
2018-12-08T07:34:35.795Z,7.80
2018-12-08T07:37:09.772Z,7.80
2018-12-08T07:39:50.022Z,7.80
2018-12-08T07:42:24.782Z,7.70
2018-12-08T07:44:59.804Z,7.70
2018-12-08T07:47:38.647Z,7.70
2018-12-08T07:50:21.160Z,7.70
2018-12-08T07:55:51.010Z,7.60
2018-12-08T08:01:20.729Z,7.70
2018-12-08T08:03:57.965Z,7.70
2018-12-08T08:06:36.159Z,7.60
2018-12-08T08:09:15.499Z,7.60
2018-12-08T08:11:49.568Z,7.60
2018-12-08T08:14:23.534Z,7.60
2018-12-08T08:17:07.121Z,7.60
2018-12-08T08:19:45.388Z,7.70
2018-12-08T08:22:23.812Z,7.70
2018-12-08T08:25:06.141Z,7.80
2018-12-08T08:27:41.563Z,7.90
2018-12-08T08:30:18.525Z,8.00
2018-12-08T08:32:58.034Z,7.90
2018-12-08T08:35:38.066Z,8.00
2018-12-08T08:38:17.315Z,7.90
2018-12-08T08:40:49.947Z,7.90
2018-12-08T08:43:26.337Z,7.90
2018-12-08T08:46:02.465Z,7.90
2018-12-08T08:48:51.412Z,7.90
2018-12-08T08:54:18.469Z,7.90
2018-12-08T08:57:12.949Z,8.00
2018-12-08T09:00:03.172Z,8.00
2018-12-08T09:02:39.857Z,8.00
2018-12-08T09:05:49.057Z,8.00
2018-12-08T09:08:37.516Z,8.00
2018-12-08T09:11:24.882Z,8.10
2018-12-08T09:14:13.273Z,8.10
2018-12-08T09:22:47.543Z,8.10
2018-12-08T09:25:46.287Z,8.20
2018-12-08T09:28:37.730Z,8.20
2018-12-08T09:36:50.443Z,8.20
2018-12-08T09:39:26.662Z,8.30
2018-12-08T09:42:01.374Z,8.20
2018-12-08T09:44:44.532Z,8.30
2018-12-08T09:47:25.487Z,8.20
2018-12-08T09:50:10.041Z,8.20
2018-12-08T09:53:05.220Z,8.20
2018-12-08T09:56:04.402Z,8.20
2018-12-08T10:03:50.603Z,8.20
2018-12-08T10:06:40.824Z,8.20
2018-12-08T10:12:09.957Z,8.20
2018-12-08T10:15:04.851Z,8.30
2018-12-08T10:20:41.694Z,8.30
2018-12-08T10:23:28.193Z,8.30
2018-12-08T10:26:38.256Z,8.40
2018-12-08T10:33:24.348Z,8.40
2018-12-08T10:36:12.030Z,8.50
2018-12-08T10:39:16.153Z,8.50
2018-12-08T10:42:10.285Z,8.60
2018-12-08T10:49:56.269Z,8.70
2018-12-08T10:53:23.983Z,8.60
2018-12-08T10:56:11.627Z,8.70
2018-12-08T10:59:17.902Z,8.70
2018-12-08T11:02:05.173Z,8.80
2018-12-08T11:04:56.162Z,8.90
2018-12-08T11:07:44.011Z,8.90
2018-12-08T11:10:20.555Z,9.00
2018-12-08T11:13:07.757Z,9.10
2018-12-08T11:35:44.923Z,9.20
2018-12-08T11:41:51.492Z,9.00
2018-12-08T11:47:49.428Z,8.90
2018-12-08T11:58:46.508Z,8.60
2018-12-08T12:07:55.278Z,8.90
2018-12-08T12:46:13.453Z,9.50
2018-12-08T12:49:02.549Z,9.50
2018-12-08T12:51:51.721Z,9.50
2018-12-08T12:54:40.300Z,9.60
2018-12-08T12:57:26.852Z,9.50
2018-12-08T13:02:56.486Z,9.80
2018-12-08T13:09:00.051Z,9.40
2018-12-08T13:18:25.231Z,9.40
2018-12-08T13:21:25.602Z,9.40
2018-12-08T13:27:38.004Z,9.30
2018-12-08T13:30:44.243Z,9.40
2018-12-08T13:36:43.683Z,9.50
2018-12-08T13:42:26.089Z,9.50
2018-12-08T13:45:14.510Z,9.60
2018-12-08T13:48:13.980Z,10.00
2018-12-08T13:51:11.992Z,9.70
2018-12-08T13:53:59.280Z,9.70
2018-12-08T13:56:50.818Z,9.70
2018-12-08T13:59:45.242Z,9.70
2018-12-08T14:02:32.482Z,9.70
2018-12-08T14:05:24.439Z,9.70
2018-12-08T14:08:21.446Z,9.60
2018-12-08T14:11:28.647Z,9.60
2018-12-08T14:14:38.751Z,9.60
2018-12-08T14:17:45.782Z,9.50
2018-12-08T14:20:35.704Z,9.50
2018-12-08T14:23:28.042Z,9.50
2018-12-08T14:26:18.163Z,9.50
2018-12-08T14:29:38.175Z,9.60
2018-12-08T14:35:22.091Z,9.60
2018-12-08T14:38:11.403Z,9.50
2018-12-08T15:06:31.599Z,9.70
2018-12-08T15:15:12.329Z,9.70
2018-12-08T15:18:05.826Z,9.70
2018-12-08T15:20:58.042Z,9.70
2018-12-08T15:23:43.692Z,9.70
2018-12-08T15:26:29.492Z,9.70
2018-12-08T15:29:35.814Z,9.70
2018-12-08T15:32:25.433Z,9.80
2018-12-08T15:38:05.079Z,9.80
2018-12-08T15:40:54.724Z,9.80
2018-12-08T15:43:59.940Z,9.90
2018-12-08T15:52:44.292Z,9.90
2018-12-08T15:55:28.582Z,9.90
2018-12-08T15:58:11.904Z,9.90
2018-12-08T16:01:12.492Z,10.00
2018-12-08T16:04:29.772Z,10.00
2018-12-08T16:07:25.660Z,10.00
2018-12-08T16:10:19.727Z,9.90
2018-12-08T16:13:15.352Z,10.00
2018-12-08T16:29:09.584Z,10.00
2018-12-08T16:33:17.154Z,10.00
2018-12-08T17:56:52.329Z,9.50
2018-12-08T18:25:19.523Z,9.40
2018-12-08T18:42:50.371Z,9.40
2018-12-08T18:45:51.673Z,9.50
2018-12-08T19:59:02.585Z,9.60
2018-12-08T20:01:55.825Z,9.60
2018-12-08T20:04:31.094Z,9.60
2018-12-08T20:07:16.526Z,9.60
2018-12-08T20:12:47.881Z,9.70
2018-12-08T20:15:47.952Z,9.70
2018-12-08T20:18:31.247Z,9.70
2018-12-08T20:21:13.121Z,9.70
2018-12-08T20:23:54.131Z,9.70
2018-12-08T20:29:45.536Z,9.80
2018-12-08T20:32:21.090Z,9.70
2018-12-08T20:35:01.263Z,9.70
2018-12-08T20:37:42.102Z,9.60
2018-12-08T20:40:27.639Z,9.70
2018-12-08T20:43:26.878Z,9.70
2018-12-08T20:46:38.904Z,9.70
2018-12-08T20:49:43.020Z,9.70
2018-12-08T20:52:29.792Z,9.70
2018-12-08T20:55:13.366Z,9.70
2018-12-08T21:00:41.350Z,9.50
2018-12-08T21:06:27.642Z,9.50
2018-12-08T22:44:19.311Z,10.70
2018-12-08T22:47:01.842Z,10.70
2018-12-08T22:49:43.348Z,10.80
2018-12-08T22:52:25.551Z,10.80
2018-12-08T22:55:12.108Z,10.80
2018-12-08T22:57:57.262Z,10.80
2018-12-08T23:00:41.090Z,10.60
2018-12-08T23:03:19.463Z,10.80
2018-12-08T23:27:02.350Z,10.00
2018-12-08T23:29:42.958Z,9.80
2018-12-08T23:38:14.308Z,9.70
2018-12-08T23:40:52.750Z,9.70
2018-12-08T23:43:36.403Z,9.80
2018-12-08T23:46:20.860Z,9.80
2018-12-08T23:49:34.270Z,9.70
2018-12-08T23:55:39.220Z,9.80
